Time,TemperatureF,DewpointF,PressureIn,WindDirection,WindDirectionDegrees,WindSpeedMPH,WindSpeedGustMPH,Humidity,HourlyPrecipIn,Conditions,Clouds,dailyrainin,SoftwareType,DateUTC
2013-07-24 00:02:00,77.0,-99.9,29.78,SW,223,11.0,14.0,-999,-99.99,,,-99.99,,2013-07-24 04:02:00,
2013-07-24 00:44:00,77.0,-99.9,29.78,SW,227,10.0,12.0,-999,-99.99,,,-99.99,,2013-07-24 04:44:00,
2013-07-24 01:02:00,77.0,-99.9,29.78,SW,225,9.0,15.0,-999,-99.99,,,-99.99,,2013-07-24 05:02:00,
2013-07-24 01:33:00,76.0,-99.9,29.77,SW,228,10.0,14.0,-999,-99.99,,,-99.99,,2013-07-24 05:33:00,
2013-07-24 02:01:00,76.0,-99.9,29.76,SW,226,8.0,10.0,-999,-99.99,,,-99.99,,2013-07-24 06:01:00,
2013-07-24 03:02:00,76.0,-99.9,29.74,SW,215,6.0,9.0,-999,-99.99,,,-99.99,,2013-07-24 07:02:00,
2013-07-24 03:43:00,76.0,-99.9,29.73,SW,226,8.0,11.0,-999,-99.99,,,-99.99,,2013-07-24 07:43:00,
2013-07-24 03:53:00,76.0,-99.9,29.73,SW,230,9.0,13.0,-999,-99.99,,,-99.99,,2013-07-24 07:53:00,
2013-07-24 04:32:00,76.0,-99.9,29.73,SW,221,7.0,9.0,-999,-99.99,,,-99.99,,2013-07-24 08:32:00,
2013-07-24 04:43:00,76.0,-99.9,29.73,SW,229,8.0,11.0,-999,-99.99,,,-99.99,,2013-07-24 08:43:00,
2013-07-24 04:52:00,76.0,-99.9,29.73,SW,229,8.0,11.0,-999,-99.99,,,-99.99,,2013-07-24 08:52:00,
2013-07-24 05:02:00,76.0,-99.9,29.73,SW,226,8.0,11.0,-999,-99.99,,,-99.99,,2013-07-24 09:02:00,
2013-07-24 05:32:00,76.0,-99.9,29.73,SW,221,6.0,9.0,-999,-99.99,,,-99.99,,2013-07-24 09:32:00,
2013-07-24 05:43:00,76.0,-99.9,29.73,SW,221,5.0,7.0,-999,-99.99,,,-99.99,,2013-07-24 09:43:00,
2013-07-24 06:02:00,75.0,-99.9,29.74,SW,215,6.0,8.0,-999,-99.99,,,-99.99,,2013-07-24 10:02:00,
2013-07-24 06:43:00,76.0,-99.9,29.74,SW,221,5.0,7.0,-999,-99.99,,,-99.99,,2013-07-24 10:43:00,
2013-07-24 06:53:00,76.0,-99.9,29.74,SW,223,5.0,7.0,-999,-99.99,,,-99.99,,2013-07-24 10:53:00,
2013-07-24 07:02:00,76.0,-99.9,29.74,SW,218,6.0,8.0,-999,-99.99,,,-99.99,,2013-07-24 11:02:00,
2013-07-24 07:22:00,76.0,-99.9,29.74,SW,220,6.0,8.0,-999,-99.99,,,-99.99,,2013-07-24 11:22:00,
2013-07-24 07:44:00,77.0,-99.9,29.75,SW,227,5.0,8.0,-999,-99.99,,,-99.99,,2013-07-24 11:44:00,
2013-07-24 09:02:00,78.0,-99.9,29.77,SW,221,8.0,11.0,-999,-99.99,,,-99.99,,2013-07-24 13:02:00,
2013-07-24 09:53:00,81.0,-99.9,29.78,SW,219,6.0,7.0,-999,-99.99,,,-99.99,,2013-07-24 13:53:00,
2013-07-24 10:02:00,82.0,-99.9,29.77,SSW,213,4.0,6.0,-999,-99.99,,,-99.99,,2013-07-24 14:02:00,
2013-07-24 10:32:00,82.0,-99.9,29.78,SSW,213,4.0,7.0,-999,-99.99,,,-99.99,,2013-07-24 14:32:00,
2013-07-24 10:43:00,82.0,-99.9,29.78,SW,224,5.0,6.0,-999,-99.99,,,-99.99,,2013-07-24 14:43:00,
2013-07-24 11:03:00,82.0,-99.9,29.78,SSW,210,6.0,8.0,-999,-99.99,,,-99.99,,2013-07-24 15:03:00,
2013-07-24 11:33:00,80.0,-99.9,29.80,SSW,205,6.0,11.0,-999,-99.99,,,-99.99,,2013-07-24 15:33:00,
2013-07-24 11:43:00,79.0,-99.9,29.80,SSW,209,8.0,11.0,-999,-99.99,,,-99.99,,2013-07-24 15:43:00,
2013-07-24 11:53:00,79.0,-99.9,29.80,SSW,213,7.0,9.0,-999,-99.99,,,-99.99,,2013-07-24 15:53:00,
2013-07-24 12:02:00,80.0,-99.9,29.80,SSW,206,6.0,11.0,-999,-99.99,,,-99.99,,2013-07-24 16:02:00,
2013-07-24 12:33:00,81.0,-99.9,29.80,SW,217,7.0,11.0,-999,-99.99,,,-99.99,,2013-07-24 16:33:00,
2013-07-24 12:43:00,81.0,-99.9,29.79,SSW,201,7.0,10.0,-999,-99.99,,,-99.99,,2013-07-24 16:43:00,
2013-07-24 12:53:00,81.0,-99.9,29.79,SSW,204,9.0,11.0,-999,-99.99,,,-99.99,,2013-07-24 16:53:00,
2013-07-24 13:03:00,82.0,-99.9,29.78,SSW,204,8.0,11.0,-999,-99.99,,,-99.99,,2013-07-24 17:03:00,
2013-07-24 13:12:00,82.0,-99.9,29.78,SSW,211,7.0,12.0,-999,-99.99,,,-99.99,,2013-07-24 17:12:00,
2013-07-24 13:33:00,82.0,-99.9,29.78,SSW,201,6.0,11.0,-999,-99.99,,,-99.99,,2013-07-24 17:33:00,
2013-07-24 13:43:00,82.0,-99.9,29.78,SSW,202,7.0,11.0,-999,-99.99,,,-99.99,,2013-07-24 17:43:00,
2013-07-24 13:53:00,82.0,-99.9,29.79,SSW,195,6.0,12.0,-999,-99.99,,,-99.99,,2013-07-24 17:53:00,
2013-07-24 14:03:00,82.0,-99.9,29.79,SSW,207,8.0,12.0,-999,-99.99,,,-99.99,,2013-07-24 18:03:00,
2013-07-24 14:33:00,81.0,-99.9,29.78,SSW,208,11.0,15.0,-999,-99.99,,,-99.99,,2013-07-24 18:33:00,
2013-07-24 14:43:00,82.0,-99.9,29.78,SSW,207,9.0,13.0,-999,-99.99,,,-99.99,,2013-07-24 18:43:00,
2013-07-24 14:52:00,82.0,-99.9,29.78,SSW,203,8.0,12.0,-999,-99.99,,,-99.99,,2013-07-24 18:52:00,
2013-07-24 15:03:00,82.0,-99.9,29.78,SSW,200,6.0,12.0,-999,-99.99,,,-99.99,,2013-07-24 19:03:00,
2013-07-24 15:22:00,82.0,-99.9,29.78,SSW,198,6.0,12.0,-999,-99.99,,,-99.99,,2013-07-24 19:22:00,
2013-07-24 15:33:00,81.0,-99.9,29.77,SSW,197,6.0,10.0,-999,-99.99,,,-99.99,,2013-07-24 19:33:00,
2013-07-24 15:43:00,81.0,-99.9,29.77,SSW,193,6.0,10.0,-999,-99.99,,,-99.99,,2013-07-24 19:43:00,
2013-07-24 15:53:00,81.0,-99.9,29.77,SSW,192,4.0,8.0,-999,-99.99,,,-99.99,,2013-07-24 19:53:00,
2013-07-24 16:03:00,81.0,-99.9,29.77,South,188,5.0,9.0,-999,-99.99,,,-99.99,,2013-07-24 20:03:00,
2013-07-24 16:13:00,81.0,-99.9,29.77,SSW,192,4.0,8.0,-999,-99.99,,,-99.99,,2013-07-24 20:13:00,
2013-07-24 16:33:00,83.0,-99.9,29.77,South,181,7.0,11.0,-999,-99.99,,,-99.99,,2013-07-24 20:33:00,
2013-07-24 16:43:00,82.0,-99.9,29.77,South,176,11.0,14.0,-999,-99.99,,,-99.99,,2013-07-24 20:43:00,
2013-07-24 16:53:00,82.0,-99.9,29.77,South,182,8.0,12.0,-999,-99.99,,,-99.99,,2013-07-24 20:53:00,
2013-07-24 17:03:00,83.0,-99.9,29.77,South,184,6.0,12.0,-999,-99.99,,,-99.99,,2013-07-24 21:03:00,
2013-07-24 17:12:00,83.0,-99.9,29.77,South,180,9.0,13.0,-999,-99.99,,,-99.99,,2013-07-24 21:12:00,
2013-07-24 17:32:00,82.0,-99.9,29.77,South,188,5.0,13.0,-999,-99.99,,,-99.99,,2013-07-24 21:32:00,
2013-07-24 17:44:00,82.0,-99.9,29.77,South,187,5.0,13.0,-999,-99.99,,,-99.99,,2013-07-24 21:44:00,
2013-07-24 17:53:00,82.0,-99.9,29.76,South,191,7.0,11.0,-999,-99.99,,,-99.99,,2013-07-24 21:53:00,
2013-07-24 18:02:00,81.0,-99.9,29.76,SSW,201,9.0,15.0,-999,-99.99,,,-99.99,,2013-07-24 22:02:00,
2013-07-24 18:22:00,81.0,-99.9,29.75,SSW,199,9.0,14.0,-999,-99.99,,,-99.99,,2013-07-24 22:22:00,
2013-07-24 18:43:00,81.0,-99.9,29.76,SW,216,11.0,17.0,-999,-99.99,,,-99.99,,2013-07-24 22:43:00,
2013-07-24 19:02:00,80.0,-99.9,29.76,SW,215,10.0,15.0,-999,-99.99,,,-99.99,,2013-07-24 23:02:00,
2013-07-24 19:22:00,80.0,-99.9,29.76,SW,216,12.0,16.0,-999,-99.99,,,-99.99,,2013-07-24 23:22:00,
2013-07-24 19:33:00,80.0,-99.9,29.77,SW,221,11.0,15.0,-999,-99.99,,,-99.99,,2013-07-24 23:33:00,
2013-07-24 19:52:00,80.0,-99.9,29.78,SSW,211,9.0,15.0,-999,-99.99,,,-99.99,,2013-07-24 23:52:00,
2013-07-24 20:02:00,79.0,-99.9,29.79,SW,218,8.0,12.0,-999,-99.99,,,-99.99,,2013-07-25 00:02:00,
2013-07-24 20:12:00,79.0,-99.9,29.80,SW,221,8.0,12.0,-999,-99.99,,,-99.99,,2013-07-25 00:12:00,
2013-07-24 20:43:00,79.0,-99.9,29.80,SSW,208,9.0,13.0,-999,-99.99,,,-99.99,,2013-07-25 00:43:00,
2013-07-24 22:02:00,78.0,-99.9,29.82,SW,220,5.0,8.0,-999,-99.99,,,-99.99,,2013-07-25 02:02:00,
2013-07-24 22:12:00,78.0,-99.9,29.82,SW,230,4.0,7.0,-999,-99.99,,,-99.99,,2013-07-25 02:12:00,
2013-07-24 22:22:00,78.0,-99.9,29.82,SW,234,5.0,6.0,-999,-99.99,,,-99.99,,2013-07-25 02:22:00,
2013-07-24 22:43:00,78.0,-99.9,29.83,SW,236,5.0,7.0,-999,-99.99,,,-99.99,,2013-07-25 02:43:00,
2013-07-24 23:16:00,78.0,-99.9,29.83,SW,215,5.0,7.0,-999,-99.99,,,-99.99,,2013-07-25 03:16:00,